Time;durP1;ratioP1;P1;durP2;ratioP2;P2;SDS_P1;SDS_P2;PMS_P1;PMS_P2;Temp;Humidity;BMP_temperature;BMP_pressure;BME280_temperature;BME280_humidity;BME280_pressure;Samples;Min_cycle;Max_cycle;Signal;HPM_P1;HPM_P2
2022/03/07 00:00:11;;;;;;;;;;;0.30;99.90;;;;;;5039654;28;20310;-76
2022/03/07 00:02:36;;;;;;;;;;;0.30;99.90;;;;;;5044461;28;20327;-76
2022/03/07 00:05:02;;;;;;;;;;;0.30;99.90;;;;;;5046608;28;19928;-76
2022/03/07 00:07:28;;;;;;;;;;;0.30;99.90;;;;;;5037378;28;19925;-76
2022/03/07 00:09:54;;;;;;;;;;;0.30;99.90;;;;;;5048455;28;20303;-76
2022/03/07 00:12:19;;;;;;;;;;;0.30;99.90;;;;;;5040517;28;19969;-75
2022/03/07 00:14:45;;;;;;;;;;;0.30;99.90;;;;;;5061943;28;19925;-75
2022/03/07 00:17:10;;;;;;;;;;;0.20;99.90;;;;;;5045216;28;19936;-75
2022/03/07 00:19:36;;;;;;;;;;;0.20;99.90;;;;;;5037310;28;19968;-76
2022/03/07 00:22:01;;;;;;;;;;;0.20;99.90;;;;;;5049817;28;19924;-75
2022/03/07 00:24:27;;;;;;;;;;;0.10;99.90;;;;;;5041112;28;19930;-76
2022/03/07 00:26:52;;;;;;;;;;;0.10;99.90;;;;;;5042147;28;19929;-76
2022/03/07 00:29:18;;;;;;;;;;;0.10;99.90;;;;;;5048518;28;20017;-76
2022/03/07 00:31:44;;;;;;;;;;;0.10;99.90;;;;;;5036780;28;19927;-76
2022/03/07 00:34:09;;;;;;;;;;;0.00;99.90;;;;;;5054631;28;19928;-76
2022/03/07 00:36:35;;;;;;;;;;;0.00;99.90;;;;;;5054079;28;19921;-76
2022/03/07 00:39:00;;;;;;;;;;;0.00;99.90;;;;;;5074061;28;19932;-77
2022/03/07 00:41:26;;;;;;;;;;;0.10;99.90;;;;;;5057487;28;19921;-76
2022/03/07 00:43:51;;;;;;;;;;;0.10;99.90;;;;;;5047078;28;19928;-77
2022/03/07 00:46:17;;;;;;;;;;;0.10;99.90;;;;;;5037557;28;19962;-77
2022/03/07 00:48:42;;;;;;;;;;;0.10;99.90;;;;;;5037773;28;19925;-77
2022/03/07 00:51:08;;;;;;;;;;;0.10;99.90;;;;;;5055024;28;19916;-77
2022/03/07 00:53:36;;;;;;;;;;;0.10;99.90;;;;;;5037454;28;20450;-76
2022/03/07 00:56:02;;;;;;;;;;;0.10;99.90;;;;;;5037595;28;19964;-77
2022/03/07 00:58:27;;;;;;;;;;;0.00;99.90;;;;;;5036898;28;19952;-77
2022/03/07 01:00:53;;;;;;;;;;;0.00;99.90;;;;;;5038449;28;19924;-76
2022/03/07 01:03:19;;;;;;;;;;;-0.10;99.90;;;;;;5036881;28;19917;-76
2022/03/07 01:05:45;;;;;;;;;;;-0.10;99.90;;;;;;5037008;28;19951;-76
2022/03/07 01:08:11;;;;;;;;;;;-0.10;99.90;;;;;;5036936;28;20008;-76
2022/03/07 01:10:37;;;;;;;;;;;-0.20;99.90;;;;;;5037806;28;20014;-76
2022/03/07 01:13:03;;;;;;;;;;;-0.20;99.90;;;;;;5037774;28;19959;-76
2022/03/07 01:15:28;;;;;;;;;;;-0.30;99.90;;;;;;5037464;28;19958;-76
2022/03/07 01:17:54;;;;;;;;;;;-0.30;99.90;;;;;;5037266;28;20015;-76
2022/03/07 01:20:20;;;;;;;;;;;-0.30;99.90;;;;;;5036497;28;20391;-77
2022/03/07 01:22:46;;;;;;;;;;;-0.30;99.90;;;;;;5054826;28;19932;-77
2022/03/07 01:25:11;;;;;;;;;;;-0.40;99.90;;;;;;5055588;28;19921;-76
2022/03/07 01:27:37;;;;;;;;;;;-0.40;99.90;;;;;;5036250;28;19920;-77
2022/03/07 01:30:03;;;;;;;;;;;-0.50;99.90;;;;;;5055120;28;19932;-76
2022/03/07 01:32:29;;;;;;;;;;;-0.50;99.90;;;;;;5036712;28;20291;-77
2022/03/07 01:34:57;;;;;;;;;;;-0.50;99.90;;;;;;5066396;28;19920;-76
2022/03/07 01:37:22;;;;;;;;;;;-0.50;99.90;;;;;;5056633;28;20046;-76
2022/03/07 01:39:48;;;;;;;;;;;-0.60;99.90;;;;;;5056417;28;20283;-76
2022/03/07 01:42:14;;;;;;;;;;;-0.60;99.90;;;;;;5074528;28;20358;-76
2022/03/07 01:44:39;;;;;;;;;;;-0.60;99.90;;;;;;5054839;28;19921;-76
2022/03/07 01:47:05;;;;;;;;;;;-0.60;99.90;;;;;;5055566;28;19927;-76
2022/03/07 01:49:31;;;;;;;;;;;-0.70;99.90;;;;;;5074409;28;19924;-76
2022/03/07 01:51:57;;;;;;;;;;;0.50;99.90;;;;;;5056776;28;19920;-76
2022/03/07 01:54:23;;;;;;;;;;;-0.70;99.90;;;;;;5055232;28;19924;-76
2022/03/07 01:56:49;;;;;;;;;;;-0.70;99.90;;;;;;5074647;28;19920;-76
2022/03/07 01:59:16;;;;;;;;;;;-0.70;99.90;;;;;;5055920;28;19920;-76
2022/03/07 02:01:42;;;;;;;;;;;-0.80;99.90;;;;;;5054379;28;19927;-76
2022/03/07 02:04:08;;;;;;;;;;;-0.80;99.90;;;;;;5056020;28;20283;-76
2022/03/07 02:06:34;;;;;;;;;;;-0.80;99.90;;;;;;5056191;28;19928;-76
2022/03/07 02:09:00;;;;;;;;;;;-0.80;99.90;;;;;;5055556;28;19924;-76
2022/03/07 02:11:28;;;;;;;;;;;-0.80;99.90;;;;;;5055402;28;20275;-76
2022/03/07 02:13:54;;;;;;;;;;;-0.90;99.90;;;;;;5055966;28;19928;-76
2022/03/07 02:16:20;;;;;;;;;;;-0.80;99.90;;;;;;5054582;28;19916;-76
2022/03/07 02:18:46;;;;;;;;;;;-0.80;99.90;;;;;;5055795;28;19920;-76
2022/03/07 02:21:15;;;;;;;;;;;-0.90;99.90;;;;;;5073447;28;19928;-76
2022/03/07 02:23:41;;;;;;;;;;;-0.90;99.90;;;;;;5055693;28;19916;-76
2022/03/07 02:26:08;;;;;;;;;;;-0.90;99.90;;;;;;5072721;28;19920;-76
2022/03/07 02:28:33;;;;;;;;;;;-0.90;99.90;;;;;;5054560;28;19921;-76
2022/03/07 02:30:59;;;;;;;;;;;-0.90;99.90;;;;;;5055545;28;19974;-76
2022/03/07 02:33:27;;;;;;;;;;;-0.90;99.90;;;;;;5055500;28;19924;-76
2022/03/07 02:35:53;;;;;;;;;;;-0.90;99.90;;;;;;5054886;28;19920;-76
2022/03/07 02:38:18;;;;;;;;;;;-0.90;99.90;;;;;;5039690;28;19943;-76
2022/03/07 02:40:46;;;;;;;;;;;-0.90;99.90;;;;;;5035900;28;19928;-76
2022/03/07 02:43:12;;;;;;;;;;;-0.90;99.90;;;;;;5052078;28;20062;-76
2022/03/07 02:45:37;;;;;;;;;;;-0.90;99.90;;;;;;5035694;28;19967;-76
2022/03/07 02:48:03;;;;;;;;;;;-1.00;99.90;;;;;;5053267;28;19925;-76
2022/03/07 02:50:28;;;;;;;;;;;-1.00;99.90;;;;;;5052901;28;19924;-76
2022/03/07 02:52:56;;;;;;;;;;;-1.10;99.90;;;;;;5036738;28;19920;-76
2022/03/07 02:55:21;;;;;;;;;;;-1.10;99.90;;;;;;5035020;28;19921;-76
2022/03/07 02:57:47;;;;;;;;;;;-1.10;99.90;;;;;;5035057;28;19921;-76
2022/03/07 03:00:13;;;;;;;;;;;-1.20;99.90;;;;;;5035253;28;20345;-76
2022/03/07 03:02:38;;;;;;;;;;;-1.20;99.90;;;;;;5052983;28;20273;-76
2022/03/07 03:05:04;;;;;;;;;;;-1.20;99.90;;;;;;5052116;28;19920;-76
2022/03/07 03:07:29;;;;;;;;;;;-1.10;99.90;;;;;;5035096;28;19955;-76
2022/03/07 03:09:55;;;;;;;;;;;-1.10;99.90;;;;;;5041906;28;19920;-76
2022/03/07 03:12:24;;;;;;;;;;;-1.10;99.90;;;;;;5054149;28;19920;-76
2022/03/07 03:14:49;;;;;;;;;;;-1.10;99.90;;;;;;5054842;28;19921;-76
2022/03/07 03:17:15;;;;;;;;;;;-1.10;99.90;;;;;;5054789;28;19927;-77
2022/03/07 03:19:41;;;;;;;;;;;-1.10;99.90;;;;;;5054824;28;19924;-77
2022/03/07 03:22:06;;;;;;;;;;;-1.10;99.90;;;;;;5054867;28;19921;-76
2022/03/07 03:24:32;;;;;;;;;;;-1.20;99.90;;;;;;5052606;28;20020;-76
2022/03/07 03:26:57;;;;;;;;;;;-1.20;99.90;;;;;;5054500;28;20364;-77
2022/03/07 03:29:23;;;;;;;;;;;-1.20;99.90;;;;;;5054460;28;19929;-76
2022/03/07 03:31:48;;;;;;;;;;;-1.30;99.90;;;;;;5054735;28;19928;-77
2022/03/07 03:34:14;;;;;;;;;;;-1.30;99.90;;;;;;5052279;28;19924;-76
2022/03/07 03:36:39;;;;;;;;;;;-1.30;99.90;;;;;;5054761;28;20015;-77
2022/03/07 03:39:05;;;;;;;;;;;-1.30;99.90;;;;;;5054352;28;19921;-77
2022/03/07 03:41:30;;;;;;;;;;;-1.30;99.90;;;;;;5055196;28;19920;-77
2022/03/07 03:43:56;;;;;;;;;;;-1.40;99.90;;;;;;5046165;28;19921;-76
2022/03/07 03:46:21;;;;;;;;;;;-1.40;99.90;;;;;;5034031;28;19928;-76
2022/03/07 03:48:47;;;;;;;;;;;-1.50;99.90;;;;;;5052851;28;20403;-76
2022/03/07 03:51:12;;;;;;;;;;;-1.50;99.90;;;;;;5052434;28;20292;-76
2022/03/07 03:53:38;;;;;;;;;;;-1.50;99.90;;;;;;5034619;28;19948;-76
2022/03/07 03:56:03;;;;;;;;;;;-1.50;99.90;;;;;;5033871;28;19921;-76
2022/03/07 03:58:29;;;;;;;;;;;-1.50;99.90;;;;;;5035646;28;19920;-76
2022/03/07 04:00:54;;;;;;;;;;;-1.50;99.90;;;;;;5034376;28;19928;-77
2022/03/07 04:03:23;;;;;;;;;;;-1.60;99.90;;;;;;5053476;28;19964;-76
2022/03/07 04:05:48;;;;;;;;;;;-1.60;99.90;;;;;;5034449;28;20406;-78
2022/03/07 04:08:14;;;;;;;;;;;-1.60;99.90;;;;;;5034196;28;19959;-77
2022/03/07 04:10:39;;;;;;;;;;;-1.60;99.90;;;;;;5034629;28;19921;-77
2022/03/07 04:13:05;;;;;;;;;;;-1.60;99.90;;;;;;5034506;28;20283;-76
2022/03/07 04:15:31;;;;;;;;;;;-1.60;99.90;;;;;;5034829;28;19925;-77
2022/03/07 04:17:56;;;;;;;;;;;-1.60;99.90;;;;;;5035045;28;19928;-76
2022/03/07 04:20:22;;;;;;;;;;;-1.60;99.90;;;;;;5034307;28;20008;-77
2022/03/07 04:22:47;;;;;;;;;;;-1.60;99.90;;;;;;5037611;28;19921;-77
2022/03/07 04:25:13;;;;;;;;;;;-1.60;99.90;;;;;;5062742;28;19924;-77
2022/03/07 04:27:39;;;;;;;;;;;-1.60;99.90;;;;;;5049260;28;19921;-76
2022/03/07 04:30:05;;;;;;;;;;;-1.60;99.90;;;;;;5063083;28;19921;-76
2022/03/07 04:32:33;;;;;;;;;;;-1.60;99.90;;;;;;5062610;28;19920;-76
2022/03/07 04:34:59;;;;;;;;;;;-1.60;99.90;;;;;;5063542;28;19920;-76
2022/03/07 04:37:25;;;;;;;;;;;-1.60;99.90;;;;;;5064483;28;19927;-76
2022/03/07 04:39:50;;;;;;;;;;;-1.60;99.90;;;;;;5055116;28;19943;-76
2022/03/07 04:42:16;;;;;;;;;;;-1.70;99.90;;;;;;5054393;28;19920;-77
2022/03/07 04:44:44;;;;;;;;;;;-1.70;99.90;;;;;;5054163;28;19965;-76
2022/03/07 04:47:10;;;;;;;;;;;-1.70;99.90;;;;;;5075074;28;19970;-76
2022/03/07 04:49:35;;;;;;;;;;;-1.70;99.90;;;;;;5053356;28;19975;-76
2022/03/07 04:52:01;;;;;;;;;;;-1.70;99.90;;;;;;5065443;28;20241;-76
2022/03/07 04:54:26;;;;;;;;;;;-1.70;99.90;;;;;;5054507;28;19921;-76
2022/03/07 04:56:54;;;;;;;;;;;-1.70;99.90;;;;;;5054073;28;19924;-80
2022/03/07 04:59:20;;;;;;;;;;;-1.70;99.90;;;;;;5071668;28;19963;-78
2022/03/07 05:01:45;;;;;;;;;;;-1.70;99.90;;;;;;5057577;28;19920;-77
2022/03/07 05:04:11;;;;;;;;;;;-1.70;99.90;;;;;;5056380;28;19928;-77
2022/03/07 05:06:36;;;;;;;;;;;-1.70;99.90;;;;;;5056713;28;19920;-75
2022/03/07 05:09:02;;;;;;;;;;;-1.70;99.90;;;;;;5055781;28;19924;-76
2022/03/07 05:11:28;;;;;;;;;;;-1.70;99.90;;;;;;5056342;28;19946;-76
2022/03/07 05:13:53;;;;;;;;;;;-1.70;99.90;;;;;;5074838;28;19920;-76
2022/03/07 05:16:19;;;;;;;;;;;-1.70;99.90;;;;;;5056383;28;20284;-81
2022/03/07 05:18:44;;;;;;;;;;;-1.40;99.90;;;;;;5056814;28;19920;-77
2022/03/07 05:21:10;;;;;;;;;;;-1.80;99.90;;;;;;5060069;28;20364;-77
2022/03/07 05:23:35;;;;;;;;;;;-1.70;99.90;;;;;;5056231;28;19960;-77
2022/03/07 05:26:01;;;;;;;;;;;-1.70;99.90;;;;;;5036314;28;20347;-76
2022/03/07 05:28:26;;;;;;;;;;;-1.70;99.90;;;;;;5054248;28;19946;-76
2022/03/07 05:30:52;;;;;;;;;;;-1.70;99.90;;;;;;5036745;28;19921;-72
2022/03/07 05:33:17;;;;;;;;;;;-1.80;99.90;;;;;;5054102;28;19925;-74
2022/03/07 05:35:43;;;;;;;;;;;-1.80;99.90;;;;;;5036763;28;19928;-73
2022/03/07 05:38:08;;;;;;;;;;;-1.80;99.90;;;;;;5038251;28;19927;-79
2022/03/07 05:40:34;;;;;;;;;;;-1.80;99.90;;;;;;5056405;28;19920;-77
2022/03/07 05:43:00;;;;;;;;;;;-1.80;99.90;;;;;;5072052;28;19927;-79
2022/03/07 05:45:25;;;;;;;;;;;-1.80;99.90;;;;;;5051253;28;19920;-83
2022/03/07 05:47:51;;;;;;;;;;;-1.80;99.90;;;;;;5053130;28;19920;-79
2022/03/07 05:50:16;;;;;;;;;;;-1.80;99.90;;;;;;5055442;28;19920;-76
2022/03/07 05:52:42;;;;;;;;;;;-1.80;99.90;;;;;;5073077;28;19927;-81
2022/03/07 05:55:08;;;;;;;;;;;-1.80;99.90;;;;;;5055842;28;19921;-78
2022/03/07 05:57:34;;;;;;;;;;;-1.90;99.90;;;;;;5054988;28;19921;-79
2022/03/07 06:00:00;;;;;;;;;;;-1.90;99.90;;;;;;5036271;28;19920;-75
2022/03/07 06:02:26;;;;;;;;;;;-1.90;99.90;;;;;;5033622;28;19928;-79
2022/03/07 06:04:52;;;;;;;;;;;-1.90;99.90;;;;;;5052994;28;20307;-79
2022/03/07 06:07:17;;;;;;;;;;;-2.00;99.90;;;;;;5052071;28;20426;-81
2022/03/07 06:09:46;;;;;;;;;;;-2.00;99.90;;;;;;5035889;28;19925;-75
2022/03/07 06:12:11;;;;;;;;;;;-2.00;99.90;;;;;;5035473;28;20361;-73
2022/03/07 06:14:39;;;;;;;;;;;-1.90;99.90;;;;;;5053812;28;19967;-80
2022/03/07 06:17:05;;;;;;;;;;;-1.90;99.90;;;;;;5034542;28;19963;-75
2022/03/07 06:19:31;;;;;;;;;;;-1.90;99.90;;;;;;5035787;28;20326;-73
2022/03/07 06:21:56;;;;;;;;;;;-1.90;99.90;;;;;;5052831;28;19921;-71
2022/03/07 06:24:22;;;;;;;;;;;-1.90;99.90;;;;;;5053266;28;19967;-79
2022/03/07 06:26:47;;;;;;;;;;;-1.90;99.90;;;;;;5035537;28;19921;-79
2022/03/07 06:29:13;;;;;;;;;;;-1.90;99.90;;;;;;5034485;28;20295;-77
2022/03/07 06:31:38;;;;;;;;;;;-1.90;99.90;;;;;;5045461;28;19920;-74
2022/03/07 06:34:07;;;;;;;;;;;-1.90;99.90;;;;;;5055201;28;19916;-74
2022/03/07 06:36:33;;;;;;;;;;;-1.20;99.90;;;;;;5054952;28;19928;-73
2022/03/07 06:38:59;;;;;;;;;;;-1.90;99.90;;;;;;5055767;28;20025;-73
2022/03/07 06:41:24;;;;;;;;;;;-1.80;99.90;;;;;;5072967;28;20357;-73
2022/03/07 06:43:50;;;;;;;;;;;-1.80;99.90;;;;;;5070877;28;19920;-76
2022/03/07 06:46:15;;;;;;;;;;;-1.80;99.90;;;;;;5053938;28;19978;-77
2022/03/07 06:48:41;;;;;;;;;;;-1.80;99.90;;;;;;5052839;28;19920;-75
2022/03/07 06:51:06;;;;;;;;;;;-1.70;99.90;;;;;;5053884;28;19927;-74
2022/03/07 06:53:32;;;;;;;;;;;-1.70;99.90;;;;;;5072265;28;19920;-76
2022/03/07 06:55:57;;;;;;;;;;;-1.70;99.90;;;;;;5068988;28;20410;-74
2022/03/07 06:58:23;;;;;;;;;;;-1.60;99.90;;;;;;5054728;28;19934;-76
2022/03/07 07:00:48;;;;;;;;;;;-1.50;99.90;;;;;;5073356;28;20360;-77
2022/03/07 07:03:14;;;;;;;;;;;-1.40;99.90;;;;;;5053721;28;19971;-78
2022/03/07 07:05:39;;;;;;;;;;;-1.40;99.90;;;;;;5043169;28;20433;-77
2022/03/07 07:08:05;;;;;;;;;;;-1.30;99.90;;;;;;5034406;28;19971;-77
2022/03/07 07:10:30;;;;;;;;;;;-1.30;99.90;;;;;;5034822;28;19975;-77
2022/03/07 07:12:56;;;;;;;;;;;-1.20;99.90;;;;;;5052728;28;19921;-77
2022/03/07 07:15:21;;;;;;;;;;;-1.10;99.90;;;;;;5034881;28;19972;-77
2022/03/07 07:17:47;;;;;;;;;;;-1.10;99.90;;;;;;5034810;28;20066;-77
2022/03/07 07:20:13;;;;;;;;;;;-1.00;99.90;;;;;;5035948;28;20019;-77
2022/03/07 07:22:39;;;;;;;;;;;-1.00;99.90;;;;;;5052964;28;19921;-77
2022/03/07 07:25:05;;;;;;;;;;;-0.90;99.90;;;;;;5033884;28;19921;-76
2022/03/07 07:27:31;;;;;;;;;;;-0.80;99.90;;;;;;5034787;28;20387;-77
2022/03/07 07:29:56;;;;;;;;;;;-0.80;99.90;;;;;;5052888;28;19920;-76
2022/03/07 07:32:22;;;;;;;;;;;-0.30;99.90;;;;;;5051687;28;19920;-75
2022/03/07 07:34:48;;;;;;;;;;;-0.60;99.90;;;;;;5034691;28;19920;-78
2022/03/07 07:37:13;;;;;;;;;;;-0.40;99.90;;;;;;5034326;28;19932;-75
2022/03/07 07:39:39;;;;;;;;;;;-0.40;99.90;;;;;;5034074;28;19927;-75
2022/03/07 07:42:05;;;;;;;;;;;-0.20;99.90;;;;;;5034396;28;20292;-75
2022/03/07 07:44:30;;;;;;;;;;;-0.10;99.90;;;;;;5052802;28;20307;-79
2022/03/07 07:46:56;;;;;;;;;;;-0.10;99.90;;;;;;5033997;28;20452;-81
2022/03/07 07:49:23;;;;;;;;;;;0.00;99.90;;;;;;5052150;28;19920;-83
2022/03/07 07:51:49;;;;;;;;;;;0.20;99.90;;;;;;5053924;28;19920;-79
2022/03/07 07:54:15;;;;;;;;;;;0.30;99.90;;;;;;5033983;28;19928;-78
2022/03/07 07:56:40;;;;;;;;;;;0.40;99.90;;;;;;5034792;28;19929;-84
2022/03/07 07:59:06;;;;;;;;;;;0.50;99.90;;;;;;5052280;28;20288;-86
2022/03/07 08:01:31;;;;;;;;;;;0.60;99.90;;;;;;5018082;28;19921;-80
2022/03/07 08:03:57;;;;;;;;;;;1.20;99.90;;;;;;5034862;28;19921;-80
2022/03/07 08:06:22;;;;;;;;;;;2.70;99.90;;;;;;5031836;28;19924;-80
2022/03/07 08:08:48;;;;;;;;;;;4.10;99.90;;;;;;5034393;28;19921;-80
2022/03/07 08:11:13;;;;;;;;;;;5.70;99.90;;;;;;5039176;28;19924;-79
2022/03/07 08:13:39;;;;;;;;;;;7.20;99.90;;;;;;5057789;28;19921;-80
2022/03/07 08:16:04;;;;;;;;;;;8.50;99.90;;;;;;5057751;28;20287;-79
2022/03/07 08:18:30;;;;;;;;;;;9.70;99.90;;;;;;5076167;28;20292;-79
2022/03/07 08:20:59;;;;;;;;;;;10.60;99.90;;;;;;5057579;28;19921;-79
2022/03/07 08:23:25;;;;;;;;;;;11.10;99.90;;;;;;5057866;28;19921;-79
2022/03/07 08:25:51;;;;;;;;;;;12.00;99.90;;;;;;5058275;28;19943;-79
2022/03/07 08:28:16;;;;;;;;;;;12.50;99.90;;;;;;5054720;28;19920;-79
2022/03/07 08:30:42;;;;;;;;;;;12.80;99.90;;;;;;5074677;28;20022;-79
2022/03/07 08:33:08;;;;;;;;;;;13.00;99.90;;;;;;5056970;28;19917;-79
2022/03/07 08:35:33;;;;;;;;;;;13.90;97.30;;;;;;5072859;28;19928;-79
2022/03/07 08:37:59;;;;;;;;;;;14.00;97.30;;;;;;5056508;28;20288;-79
2022/03/07 08:40:25;;;;;;;;;;;14.10;95.00;;;;;;5056324;28;19924;-78
2022/03/07 08:42:53;;;;;;;;;;;14.60;95.50;;;;;;5054357;28;20007;-78
2022/03/07 08:45:22;;;;;;;;;;;15.10;93.40;;;;;;5074232;28;19970;-79
2022/03/07 08:47:50;;;;;;;;;;;15.10;93.20;;;;;;5056444;28;19949;-78
2022/03/07 08:50:18;;;;;;;;;;;15.90;94.20;;;;;;5073564;28;19920;-79
2022/03/07 08:52:43;;;;;;;;;;;16.30;90.90;;;;;;5056419;28;20268;-79
2022/03/07 08:55:09;;;;;;;;;;;16.80;88.00;;;;;;5073721;28;19927;-79
2022/03/07 08:57:35;;;;;;;;;;;16.60;87.50;;;;;;5054409;28;20359;-79
2022/03/07 09:00:01;;;;;;;;;;;16.70;90.00;;;;;;5056541;28;19920;-78
2022/03/07 09:02:26;;;;;;;;;;;17.20;91.10;;;;;;5055831;28;20011;-78
2022/03/07 09:04:52;;;;;;;;;;;17.00;83.80;;;;;;5055447;28;19928;-78
2022/03/07 09:07:17;;;;;;;;;;;17.90;76.70;;;;;;5054034;28;19983;-78
2022/03/07 09:09:43;;;;;;;;;;;18.00;77.90;;;;;;5055586;28;19924;-78
2022/03/07 09:12:08;;;;;;;;;;;17.30;78.20;;;;;;5073680;28;19917;-78
2022/03/07 09:14:34;;;;;;;;;;;17.10;80.60;;;;;;5055919;28;19970;-78
2022/03/07 09:17:00;;;;;;;;;;;17.40;79.70;;;;;;5057192;28;19927;-78
2022/03/07 09:19:26;;;;;;;;;;;17.90;77.80;;;;;;5055771;28;19917;-78
2022/03/07 09:21:51;;;;;;;;;;;17.80;75.80;;;;;;5053863;28;19928;-79
2022/03/07 09:24:17;;;;;;;;;;;18.90;70.10;;;;;;5052608;28;20396;-78
2022/03/07 09:26:43;;;;;;;;;;;18.70;70.70;;;;;;5035801;28;20331;-78
2022/03/07 09:29:10;;;;;;;;;;;18.80;65.20;;;;;;4999754;28;1042494;-78
2022/03/07 09:31:36;;;;;;;;;;;18.90;67.90;;;;;;5036427;28;19920;-78
2022/03/07 09:34:01;;;;;;;;;;;19.90;59.20;;;;;;5037967;28;20356;-79
2022/03/07 09:36:27;;;;;;;;;;;19.70;63.00;;;;;;5036402;28;20415;-77
2022/03/07 09:38:52;;;;;;;;;;;19.50;65.10;;;;;;5036028;28;20304;-77
2022/03/07 09:41:18;;;;;;;;;;;19.10;65.80;;;;;;5054110;28;20020;-77
2022/03/07 09:43:44;;;;;;;;;;;19.10;61.80;;;;;;5036769;28;20233;-78
2022/03/07 09:46:14;;;;;;;;;;;19.60;58.00;;;;;;5035418;28;19924;-77
2022/03/07 09:48:40;;;;;;;;;;;20.00;55.80;;;;;;5055597;28;19921;-78
2022/03/07 09:51:06;;;;;;;;;;;19.50;57.10;;;;;;5036010;28;19921;-78
2022/03/07 09:53:31;;;;;;;;;;;19.50;61.90;;;;;;5053854;28;19920;-78
2022/03/07 09:55:57;;;;;;;;;;;20.10;57.40;;;;;;5036399;28;19966;-78
2022/03/07 09:58:22;;;;;;;;;;;19.90;58.20;;;;;;5035782;28;19921;-78
2022/03/07 10:00:48;;;;;;;;;;;20.20;57.90;;;;;;5035973;28;19999;-78
2022/03/07 10:03:14;;;;;;;;;;;20.10;55.90;;;;;;5037206;28;19925;-78
2022/03/07 10:05:41;;;;;;;;;;;19.90;59.60;;;;;;5036091;28;19924;-78
2022/03/07 10:08:07;;;;;;;;;;;20.60;56.90;;;;;;5035323;28;19921;-78
2022/03/07 10:10:34;;;;;;;;;;;20.90;54.30;;;;;;5036477;28;20371;-78
2022/03/07 10:13:08;;;;;;;;;;;21.50;50.80;;;;;;5035985;28;20334;-78
2022/03/07 10:15:33;;;;;;;;;;;21.90;50.30;;;;;;5037253;28;19925;-78
2022/03/07 10:17:59;;;;;;;;;;;21.20;49.60;;;;;;5054316;28;19920;-79
2022/03/07 10:20:25;;;;;;;;;;;20.70;50.40;;;;;;5035252;28;20347;-78
2022/03/07 10:22:53;;;;;;;;;;;20.40;52.70;;;;;;5036393;28;19921;-78
2022/03/07 10:25:38;;;;;;;;;;;19.40;55.60;;;;;;5047910;28;20379;-78
2022/03/07 10:28:03;;;;;;;;;;;20.70;51.60;;;;;;5072766;28;19947;-78
2022/03/07 10:30:32;;;;;;;;;;;20.20;55.50;;;;;;5073276;28;20368;-78
2022/03/07 10:33:06;;;;;;;;;;;20.00;54.50;;;;;;5055264;28;19920;-79
2022/03/07 10:35:32;;;;;;;;;;;20.20;52.80;;;;;;5054871;28;19924;-79
2022/03/07 10:37:59;;;;;;;;;;;20.10;51.10;;;;;;5056039;28;19920;-79
2022/03/07 10:40:25;;;;;;;;;;;19.90;54.30;;;;;;5071082;28;20391;-78
2022/03/07 10:42:52;;;;;;;;;;;19.70;54.00;;;;;;5055488;28;19962;-78
2022/03/07 10:45:18;;;;;;;;;;;20.20;52.00;;;;;;5072750;28;20379;-79
2022/03/07 10:47:49;;;;;;;;;;;19.90;50.50;;;;;;5072083;28;19920;-79
2022/03/07 10:50:14;;;;;;;;;;;20.30;54.20;;;;;;5054648;28;19920;-79
2022/03/07 10:52:41;;;;;;;;;;;19.80;52.20;;;;;;5053743;28;19917;-79
2022/03/07 10:55:08;;;;;;;;;;;19.60;50.00;;;;;;5072187;28;20320;-79
2022/03/07 10:57:37;;;;;;;;;;;19.30;54.20;;;;;;5055120;28;20383;-79
2022/03/07 11:00:11;;;;;;;;;;;19.80;52.30;;;;;;5055213;28;19920;-79
2022/03/07 11:02:46;;;;;;;;;;;19.90;49.70;;;;;;5072736;28;19921;-79
2022/03/07 11:05:13;;;;;;;;;;;19.10;51.60;;;;;;5072809;28;19946;-79
2022/03/07 11:07:40;;;;;;;;;;;17.50;58.20;;;;;;5053368;28;20408;-80
2022/03/07 11:10:06;;;;;;;;;;;16.00;65.00;;;;;;5054158;28;19927;-79
2022/03/07 11:12:32;;;;;;;;;;;15.10;70.90;;;;;;5054975;28;19972;-79
2022/03/07 11:15:00;;;;;;;;;;;16.20;77.20;;;;;;5055276;28;19962;-79
2022/03/07 11:17:26;;;;;;;;;;;16.50;72.20;;;;;;5053810;28;20322;-79
2022/03/07 11:19:54;;;;;;;;;;;16.80;68.80;;;;;;5071480;28;19927;-79
2022/03/07 11:22:20;;;;;;;;;;;17.00;65.10;;;;;;5072440;28;20026;-79
2022/03/07 11:24:45;;;;;;;;;;;16.90;68.00;;;;;;5072261;28;19972;-80
2022/03/07 11:27:12;;;;;;;;;;;16.90;69.60;;;;;;5072330;28;20007;-79
2022/03/07 11:29:39;;;;;;;;;;;17.10;67.70;;;;;;5042470;28;20364;-87
2022/03/07 11:32:07;;;;;;;;;;;16.70;69.10;;;;;;5039329;28;20275;-82
2022/03/07 11:34:33;;;;;;;;;;;15.80;71.10;;;;;;5072737;28;20423;-81
2022/03/07 11:36:59;;;;;;;;;;;15.50;77.80;;;;;;5054534;28;20022;-82
2022/03/07 11:39:35;;;;;;;;;;;14.90;78.20;;;;;;5054048;28;19970;-82
2022/03/07 11:42:11;;;;;;;;;;;14.50;81.90;;;;;;5054910;28;20027;-90
2022/03/07 11:44:36;;;;;;;;;;;14.60;89.20;;;;;;5056350;28;20422;-86
2022/03/07 11:47:09;;;;;;;;;;;15.70;78.90;;;;;;5061590;28;19927;-81
2022/03/07 11:49:35;;;;;;;;;;;15.40;81.60;;;;;;5044809;28;19967;-76
2022/03/07 11:52:04;;;;;;;;;;;14.80;82.10;;;;;;5044437;28;19952;-78
2022/03/07 11:54:29;;;;;;;;;;;14.70;88.20;;;;;;5039297;28;19921;-80
2022/03/07 11:57:09;;;;;;;;;;;15.70;82.00;;;;;;5056622;28;19921;-80
2022/03/07 11:59:34;;;;;;;;;;;15.80;80.40;;;;;;5056068;28;19917;-78
2022/03/07 12:02:00;;;;;;;;;;;16.40;81.40;;;;;;5056334;28;19928;-83
2022/03/07 12:04:36;;;;;;;;;;;16.40;77.30;;;;;;5038229;28;20058;-81
2022/03/07 12:07:02;;;;;;;;;;;17.00;73.40;;;;;;5056664;28;20314;-80
2022/03/07 12:09:32;;;;;;;;;;;16.70;73.70;;;;;;5038167;28;19943;-78
2022/03/07 12:12:24;;;;;;;;;;;17.00;78.40;;;;;;5055911;28;20024;-78
2022/03/07 12:14:49;;;;;;;;;;;17.70;69.00;;;;;;5033803;28;20053;-78
2022/03/07 12:17:19;;;;;;;;;;;18.40;66.30;;;;;;5038052;28;19972;-77
2022/03/07 12:19:52;;;;;;;;;;;19.10;61.60;;;;;;5055543;28;20003;-77
2022/03/07 12:22:17;;;;;;;;;;;19.40;58.50;;;;;;5056870;28;20051;-75
2022/03/07 12:24:44;;;;;;;;;;;19.90;58.10;;;;;;5038447;28;20015;-75
2022/03/07 12:27:10;;;;;;;;;;;20.10;59.20;;;;;;5055114;28;19920;-76
2022/03/07 12:29:43;;;;;;;;;;;20.10;57.50;;;;;;5037903;28;20338;-76
2022/03/07 12:32:09;;;;;;;;;;;19.00;59.70;;;;;;5037875;28;19927;-77
2022/03/07 12:34:36;;;;;;;;;;;18.30;66.90;;;;;;5037380;28;19920;-76
2022/03/07 12:37:10;;;;;;;;;;;16.10;75.30;;;;;;5037977;28;20291;-75
2022/03/07 12:39:46;;;;;;;;;;;15.80;80.40;;;;;;5044524;28;19966;-76
2022/03/07 12:42:15;;;;;;;;;;;15.40;78.50;;;;;;5074972;28;19921;-77
2022/03/07 12:44:41;;;;;;;;;;;14.70;82.00;;;;;;5055805;28;19920;-76
2022/03/07 12:47:07;;;;;;;;;;;15.60;82.60;;;;;;5057130;28;20031;-76
2022/03/07 12:49:33;;;;;;;;;;;15.30;90.20;;;;;;5057258;28;19920;-76
2022/03/07 12:52:04;;;;;;;;;;;14.60;93.10;;;;;;5057316;28;20392;-78
2022/03/07 12:54:33;;;;;;;;;;;14.10;94.40;;;;;;5055801;28;20012;-77
2022/03/07 12:56:59;;;;;;;;;;;13.30;96.40;;;;;;5044939;28;19927;-80
2022/03/07 12:59:31;;;;;;;;;;;12.80;98.20;;;;;;5074926;28;20014;-82
2022/03/07 13:01:58;;;;;;;;;;;12.80;99.90;;;;;;5074333;28;20349;-81
2022/03/07 13:04:27;;;;;;;;;;;13.50;99.50;;;;;;5048987;28;20468;-80
2022/03/07 13:06:55;;;;;;;;;;;14.20;97.90;;;;;;5037081;28;19967;-80
2022/03/07 13:09:28;;;;;;;;;;;14.60;95.90;;;;;;5054329;28;20021;-80
2022/03/07 13:11:54;;;;;;;;;;;14.60;95.90;;;;;;5055265;28;20297;-80
2022/03/07 13:14:24;;;;;;;;;;;14.00;95.70;;;;;;5054890;28;19928;-78
2022/03/07 13:16:50;;;;;;;;;;;13.30;96.50;;;;;;5036869;28;19947;-83
2022/03/07 13:19:19;;;;;;;;;;;12.70;98.80;;;;;;5037011;28;19920;-82
2022/03/07 13:21:45;;;;;;;;;;;14.00;99.40;;;;;;5056497;28;19920;-83
2022/03/07 13:24:25;;;;;;;;;;;13.80;98.30;;;;;;5054139;28;20268;-83
2022/03/07 13:26:59;;;;;;;;;;;13.80;97.30;;;;;;5054851;28;19927;-84
2022/03/07 13:29:26;;;;;;;;;;;13.70;96.40;;;;;;5036326;28;19928;-84
2022/03/07 13:31:54;;;;;;;;;;;13.10;97.50;;;;;;5036478;28;19983;-83
2022/03/07 13:34:20;;;;;;;;;;;12.80;99.50;;;;;;5054225;28;20350;-82
2022/03/07 13:36:47;;;;;;;;;;;13.10;98.70;;;;;;5055597;28;19932;-86
2022/03/07 13:39:39;;;;;;;;;;;13.20;97.60;;;;;;5036104;28;20003;-78
2022/03/07 13:42:12;;;;;;;;;;;13.30;98.40;;;;;;5033101;28;20011;-82
2022/03/07 13:44:49;;;;;;;;;;;12.80;97.80;;;;;;5036081;28;20380;-80
2022/03/07 13:47:14;;;;;;;;;;;12.40;98.70;;;;;;5053540;28;19946;-79
2022/03/07 13:49:48;;;;;;;;;;;12.20;99.60;;;;;;5056835;28;19924;-80
2022/03/07 13:52:13;;;;;;;;;;;12.10;99.90;;;;;;5073870;28;20012;-81
2022/03/07 13:54:39;;;;;;;;;;;12.40;99.60;;;;;;5073126;28;20363;-84
2022/03/07 13:57:05;;;;;;;;;;;12.10;99.40;;;;;;5072255;28;19924;-82
2022/03/07 13:59:31;;;;;;;;;;;12.30;99.90;;;;;;5055875;28;19921;-81
2022/03/07 14:01:56;;;;;;;;;;;12.40;98.80;;;;;;5056529;28;20017;-81
2022/03/07 14:04:23;;;;;;;;;;;12.10;99.30;;;;;;5056257;28;20283;-80
2022/03/07 14:06:48;;;;;;;;;;;11.70;99.80;;;;;;5054887;28;19920;-85
2022/03/07 14:09:14;;;;;;;;;;;11.70;99.90;;;;;;5073372;28;19927;-86
2022/03/07 14:11:40;;;;;;;;;;;11.50;99.90;;;;;;5074340;28;20007;-81
2022/03/07 14:14:17;;;;;;;;;;;11.20;99.90;;;;;;5053308;28;19942;-80